Greensboro, North Carolina
Current Conditions -  °F | °C
As of 5:54 PM on Thursday 18 Dec 2014 (Local Time) from KGSO Reporting Station
Overcast Overcast  
Wind Chill: 46°   Ceiling: 6500
Heat Index: 46°   Visibility: 10mi
Dew Point: 20°   Wind: 0mph
Humidity: 35%   Direction: NA
Pressure: 30.08"   Gusts: NA
Location:  36.07°N, 79.79°W
Report Text: KGSO 182254Z 00000KT 10SM BKN065 OVC250 08/M07 A3008 RMK AO2 SLP188 T00781067
Loading
Personal Weather Stations






























Interactive Weather Map New forecast layout! Learn more

10-Day Weather Forecast

Advertisements
Track Severe Weather on mobile